createdAt,value
2018-09-30T00:01:59.210Z,10.73
2018-09-30T00:04:28.206Z,11.67
2018-09-30T00:06:57.597Z,10.47
2018-09-30T00:09:29.713Z,11.43
2018-09-30T00:12:00.083Z,10.23
2018-09-30T00:14:28.993Z,13.53
2018-09-30T00:16:58.724Z,13.13
2018-09-30T00:19:27.614Z,11.10
2018-09-30T00:21:56.885Z,12.07
2018-09-30T00:24:31.516Z,10.93
2018-09-30T00:27:03.448Z,12.57
2018-09-30T00:29:33.148Z,12.97
2018-09-30T00:32:02.475Z,16.27
2018-09-30T00:34:31.419Z,11.47
2018-09-30T00:37:01.092Z,10.33
2018-09-30T00:39:29.786Z,10.93
2018-09-30T00:41:59.083Z,11.60
2018-09-30T00:44:28.346Z,12.07
2018-09-30T00:46:57.972Z,12.83
2018-09-30T00:49:27.692Z,13.27
2018-09-30T00:51:56.834Z,8.73
2018-09-30T00:54:25.789Z,11.80
2018-09-30T00:56:54.952Z,12.97
2018-09-30T00:59:25.232Z,12.27
2018-09-30T01:01:56.115Z,11.50
2018-09-30T01:04:29.090Z,8.97
2018-09-30T01:07:00.108Z,10.77
2018-09-30T01:09:32.900Z,12.83
2018-09-30T01:12:02.962Z,14.00
2018-09-30T01:14:33.194Z,8.27
2018-09-30T01:17:02.298Z,14.03
2018-09-30T01:19:32.500Z,13.80
2018-09-30T01:22:01.996Z,12.40
2018-09-30T01:24:31.051Z,10.90
2018-09-30T01:26:59.896Z,10.90
2018-09-30T01:29:28.993Z,10.97
2018-09-30T01:31:57.983Z,9.83
2018-09-30T01:34:27.820Z,14.37
2018-09-30T01:36:58.364Z,9.80
2018-09-30T01:39:27.259Z,14.13
2018-09-30T01:41:58.066Z,8.03
2018-09-30T01:44:27.315Z,12.37
2018-09-30T01:46:57.407Z,14.73
2018-09-30T01:49:26.247Z,9.67
2018-09-30T01:52:06.158Z,12.90
2018-09-30T01:54:35.389Z,12.23
2018-09-30T01:57:05.105Z,15.00
2018-09-30T01:59:35.254Z,10.77
2018-09-30T02:02:04.065Z,13.60
2018-09-30T02:04:33.250Z,10.00
2018-09-30T02:07:02.264Z,13.40
2018-09-30T02:09:31.456Z,9.07
2018-09-30T02:12:00.766Z,10.00
2018-09-30T02:14:29.712Z,8.90
2018-09-30T02:16:58.606Z,9.87
2018-09-30T02:19:28.522Z,11.57
2018-09-30T02:21:58.884Z,13.53
2018-09-30T02:24:28.169Z,8.37
2018-09-30T02:26:57.554Z,11.97
2018-09-30T02:29:26.654Z,12.07
2018-09-30T02:31:56.557Z,11.47
2018-09-30T02:34:25.805Z,11.17
2018-09-30T02:36:54.881Z,10.40
2018-09-30T02:39:23.772Z,10.90
2018-09-30T02:41:53.751Z,11.83
2018-09-30T02:44:23.162Z,12.20
2018-09-30T02:46:52.061Z,9.17
2018-09-30T02:49:21.579Z,10.43
2018-09-30T02:52:53.706Z,11.67
2018-09-30T02:55:23.548Z,9.70
2018-09-30T02:57:52.485Z,9.20
2018-09-30T03:00:21.833Z,14.20
2018-09-30T03:02:51.105Z,6.97
2018-09-30T03:05:20.182Z,7.90
2018-09-30T03:07:54.421Z,11.17
2018-09-30T03:10:24.417Z,9.27
2018-09-30T03:12:54.134Z,9.80
2018-09-30T03:15:22.795Z,9.37
2018-09-30T03:17:51.618Z,6.93
2018-09-30T03:20:21.158Z,8.60
2018-09-30T03:22:50.275Z,7.13
2018-09-30T03:25:20.115Z,11.23
2018-09-30T03:27:49.453Z,9.70
2018-09-30T03:30:18.546Z,8.97
2018-09-30T03:32:47.848Z,9.07
2018-09-30T03:35:17.436Z,10.63
2018-09-30T03:37:46.630Z,8.60
2018-09-30T03:40:15.707Z,8.83
2018-09-30T03:42:45.208Z,9.43
2018-09-30T03:45:15.229Z,7.87
2018-09-30T03:47:48.063Z,10.80
2018-09-30T03:50:17.439Z,7.20
2018-09-30T03:52:46.550Z,6.83
2018-09-30T03:55:15.458Z,9.30
2018-09-30T03:57:45.024Z,8.00
2018-09-30T04:00:14.679Z,9.43
2018-09-30T04:02:44.765Z,10.73
2018-09-30T04:05:13.848Z,6.13
2018-09-30T04:07:42.953Z,6.90
2018-09-30T04:10:12.629Z,7.10
2018-09-30T04:12:41.374Z,6.87
2018-09-30T04:15:10.745Z,6.83
2018-09-30T04:17:39.581Z,9.07
2018-09-30T04:20:08.831Z,6.97
2018-09-30T04:22:37.726Z,9.97
2018-09-30T04:25:06.565Z,6.90
2018-09-30T04:27:35.749Z,7.73
2018-09-30T04:30:05.012Z,10.90
2018-09-30T04:32:33.822Z,5.23
2018-09-30T04:35:02.675Z,9.47
2018-09-30T04:37:32.775Z,8.43
2018-09-30T04:40:01.880Z,6.13
2018-09-30T04:42:31.146Z,6.37
2018-09-30T04:45:00.632Z,5.73
2018-09-30T04:47:29.626Z,9.93
2018-09-30T04:49:59.494Z,7.30
2018-09-30T04:52:29.043Z,13.67
2018-09-30T04:54:58.375Z,6.07
2018-09-30T04:57:27.847Z,10.60
2018-09-30T04:59:56.821Z,5.47
2018-09-30T05:02:26.174Z,6.47
2018-09-30T05:04:55.021Z,8.83
2018-09-30T05:07:35.900Z,8.90
2018-09-30T05:10:04.519Z,9.33
2018-09-30T05:12:33.902Z,8.13
2018-09-30T05:15:04.325Z,8.77
2018-09-30T05:17:33.735Z,7.13
2018-09-30T05:20:03.411Z,6.27
2018-09-30T05:22:32.701Z,8.60
2018-09-30T05:25:02.194Z,8.93
2018-09-30T05:27:31.107Z,9.97
2018-09-30T05:29:59.869Z,7.07
2018-09-30T05:32:28.686Z,8.57
2018-09-30T05:34:57.833Z,10.07
2018-09-30T05:37:26.862Z,7.73
2018-09-30T05:39:55.813Z,8.90
2018-09-30T05:42:24.567Z,6.87
2018-09-30T05:44:53.541Z,10.20
2018-09-30T05:47:23.096Z,9.37
2018-09-30T05:49:52.119Z,6.33
2018-09-30T05:52:20.885Z,7.93
2018-09-30T05:54:50.167Z,9.40
2018-09-30T05:57:19.910Z,28.13
2018-09-30T05:59:48.951Z,10.57
2018-09-30T06:02:17.954Z,11.07
2018-09-30T06:04:46.756Z,8.40
2018-09-30T06:07:16.817Z,8.80
2018-09-30T06:09:46.295Z,10.13
2018-09-30T06:12:15.413Z,8.30
2018-09-30T06:14:44.624Z,10.17
2018-09-30T06:17:13.552Z,8.70
2018-09-30T06:19:42.558Z,12.37
2018-09-30T06:22:12.263Z,8.37
2018-09-30T06:24:41.682Z,8.47
2018-09-30T06:27:11.669Z,8.17
2018-09-30T06:29:41.109Z,11.27
2018-09-30T06:32:10.680Z,8.43
2018-09-30T06:34:39.937Z,11.20
2018-09-30T06:37:09.003Z,15.63
2018-09-30T06:39:38.201Z,15.83
2018-09-30T06:42:07.020Z,11.30
2018-09-30T06:44:36.784Z,12.60
2018-09-30T06:47:07.270Z,13.97
2018-09-30T06:49:36.797Z,12.57
2018-09-30T06:52:05.691Z,12.10
2018-09-30T06:54:34.961Z,13.77
2018-09-30T06:57:05.474Z,10.93
2018-09-30T06:59:34.809Z,14.63
2018-09-30T07:02:03.981Z,12.00
2018-09-30T07:04:33.491Z,13.33
2018-09-30T07:07:02.855Z,10.43
2018-09-30T07:09:31.876Z,18.17
2018-09-30T07:12:01.114Z,13.63
2018-09-30T07:14:30.815Z,12.43
2018-09-30T07:17:02.220Z,11.10
2018-09-30T07:19:31.347Z,10.87
2018-09-30T07:22:00.297Z,15.60
2018-09-30T07:24:29.318Z,14.90
2018-09-30T07:26:58.612Z,15.27
2018-09-30T07:29:27.517Z,18.27
2018-09-30T07:31:56.961Z,13.57
2018-09-30T07:34:26.793Z,11.93
2018-09-30T07:36:57.593Z,14.83
2018-09-30T07:39:26.558Z,13.83
2018-09-30T07:41:56.802Z,12.23
2018-09-30T07:44:28.614Z,14.27
2018-09-30T07:46:58.371Z,15.50
2018-09-30T07:49:28.012Z,13.93
2018-09-30T07:51:57.630Z,15.77
2018-09-30T07:54:27.624Z,11.93
2018-09-30T07:56:57.308Z,11.57
2018-09-30T07:59:26.467Z,16.50
2018-09-30T08:01:55.699Z,16.10
2018-09-30T08:04:24.619Z,15.67
2018-09-30T08:06:54.411Z,19.47
2018-09-30T08:09:23.604Z,13.30
2018-09-30T08:11:53.068Z,14.40
2018-09-30T08:14:21.942Z,14.83
2018-09-30T08:16:51.746Z,10.33
2018-09-30T08:19:21.000Z,10.17
2018-09-30T08:21:50.462Z,10.63
2018-09-30T08:24:22.463Z,15.83
2018-09-30T08:26:51.701Z,11.93
2018-09-30T08:29:21.208Z,15.37
2018-09-30T08:31:50.190Z,13.93
2018-09-30T08:34:20.051Z,7.67
2018-09-30T08:36:54.976Z,15.53
2018-09-30T08:39:32.644Z,11.03
2018-09-30T08:42:02.375Z,13.43
2018-09-30T08:44:34.077Z,13.07
2018-09-30T08:47:03.353Z,15.73
2018-09-30T08:49:32.640Z,14.80
2018-09-30T08:52:02.036Z,12.03
2018-09-30T08:54:31.213Z,16.70
2018-09-30T08:57:00.077Z,9.53
2018-09-30T08:59:29.145Z,12.37
2018-09-30T09:01:58.515Z,13.63
2018-09-30T09:04:27.580Z,13.53
2018-09-30T09:06:57.344Z,11.30
2018-09-30T09:09:26.504Z,11.50
2018-09-30T09:11:56.361Z,14.37
2018-09-30T09:14:26.498Z,13.70
2018-09-30T09:16:55.895Z,13.63
2018-09-30T09:19:25.089Z,10.47
2018-09-30T09:21:54.076Z,12.40
2018-09-30T09:24:23.386Z,13.73
2018-09-30T09:26:52.680Z,13.00
2018-09-30T09:29:22.214Z,14.00
2018-09-30T09:31:51.467Z,19.83
2018-09-30T09:34:20.327Z,16.77
2018-09-30T09:36:49.935Z,14.37
2018-09-30T09:39:18.976Z,13.87
2018-09-30T09:41:47.886Z,11.97
2018-09-30T09:44:19.452Z,9.57
2018-09-30T09:46:49.679Z,11.83
2018-09-30T09:49:19.144Z,11.87
2018-09-30T09:51:48.489Z,15.57
2018-09-30T09:54:17.851Z,12.17
2018-09-30T09:56:47.465Z,9.47
2018-09-30T09:59:16.813Z,13.33
2018-09-30T10:01:46.384Z,10.00
2018-09-30T10:04:15.701Z,8.37
2018-09-30T10:06:44.781Z,5.70
2018-09-30T10:09:14.027Z,8.47
2018-09-30T10:11:43.672Z,8.73
2018-09-30T10:14:12.613Z,8.93
2018-09-30T10:16:41.960Z,12.60
2018-09-30T10:19:11.874Z,7.50
2018-09-30T10:21:41.655Z,7.30
2018-09-30T10:24:10.507Z,8.17
2018-09-30T10:26:40.085Z,11.00
2018-09-30T10:29:09.234Z,8.83
2018-09-30T10:31:38.300Z,8.40
2018-09-30T10:34:07.830Z,9.77
2018-09-30T10:36:36.760Z,12.00
2018-09-30T10:39:08.602Z,6.43
2018-09-30T10:41:37.844Z,5.43
2018-09-30T10:44:07.696Z,6.40
2018-09-30T10:46:37.168Z,10.03
2018-09-30T10:49:06.379Z,6.53
2018-09-30T10:51:35.370Z,6.50
2018-09-30T10:54:04.765Z,7.27
2018-09-30T10:56:33.752Z,6.60
2018-09-30T10:59:03.149Z,8.93
2018-09-30T11:01:32.247Z,7.33
2018-09-30T11:04:01.604Z,8.07
2018-09-30T11:06:31.472Z,5.17
2018-09-30T11:09:00.730Z,7.77
2018-09-30T11:11:30.149Z,6.73
2018-09-30T11:13:59.274Z,4.72
2018-09-30T11:16:28.638Z,8.23
2018-09-30T11:18:57.949Z,6.83
2018-09-30T11:21:27.174Z,10.70
2018-09-30T11:23:57.052Z,8.30
2018-09-30T11:26:26.518Z,4.53
2018-09-30T11:28:56.668Z,5.30
2018-09-30T11:31:27.048Z,7.95
2018-09-30T11:33:56.741Z,7.75
2018-09-30T11:36:25.535Z,6.35
2018-09-30T11:38:54.664Z,3.65
2018-09-30T11:41:23.593Z,7.97
2018-09-30T11:43:53.573Z,5.45
2018-09-30T11:46:22.187Z,6.70
2018-09-30T11:48:51.016Z,4.40
2018-09-30T11:51:20.437Z,7.90
2018-09-30T11:53:50.099Z,5.12
2018-09-30T11:56:19.703Z,6.78
2018-09-30T11:58:48.630Z,7.28
2018-09-30T12:01:18.236Z,9.88
2018-09-30T12:03:47.680Z,5.25
2018-09-30T12:06:16.748Z,6.00
2018-09-30T12:08:45.814Z,5.05
2018-09-30T12:11:15.681Z,8.73
2018-09-30T12:13:50.138Z,3.67
2018-09-30T12:16:20.671Z,6.78
2018-09-30T12:18:49.862Z,5.65
2018-09-30T12:21:19.123Z,7.37
2018-09-30T12:23:48.653Z,7.50
2018-09-30T12:26:21.169Z,7.15
2018-09-30T12:28:51.793Z,6.65
2018-09-30T12:31:23.110Z,4.95
2018-09-30T12:33:52.400Z,7.72
2018-09-30T12:36:21.317Z,5.42
2018-09-30T12:38:50.337Z,6.28
2018-09-30T12:41:19.188Z,6.80
2018-09-30T12:43:48.582Z,7.62
2018-09-30T12:46:17.773Z,4.37
2018-09-30T12:48:46.992Z,4.30
2018-09-30T12:51:16.498Z,5.83
2018-09-30T12:53:47.496Z,6.67
2018-09-30T12:56:16.869Z,6.97
2018-09-30T12:58:48.028Z,4.62
2018-09-30T13:01:19.202Z,4.60
2018-09-30T13:03:49.697Z,4.95
2018-09-30T13:06:19.469Z,3.80
2018-09-30T13:08:49.731Z,6.30
2018-09-30T13:11:20.526Z,7.28
2018-09-30T13:13:50.739Z,8.43
2018-09-30T13:16:19.829Z,3.60
2018-09-30T13:18:50.191Z,5.73
2018-09-30T13:21:20.191Z,4.80
2018-09-30T13:23:53.757Z,3.77
2018-09-30T13:26:23.465Z,5.00
2018-09-30T13:28:53.436Z,4.73
2018-09-30T13:31:22.735Z,7.83
2018-09-30T13:33:55.439Z,6.33
2018-09-30T13:36:25.176Z,5.93
2018-09-30T13:38:54.862Z,3.87
2018-09-30T13:41:23.951Z,4.07
2018-09-30T13:43:53.490Z,5.90
2018-09-30T13:46:23.038Z,6.37
2018-09-30T13:49:00.365Z,4.80
2018-09-30T13:51:31.779Z,6.33
2018-09-30T13:54:01.186Z,5.20
2018-09-30T13:56:30.083Z,4.83
2018-09-30T13:58:59.199Z,5.67
2018-09-30T14:01:29.006Z,5.80
2018-09-30T14:03:58.823Z,6.53
2018-09-30T14:06:27.926Z,5.57
2018-09-30T14:08:57.466Z,5.37
2018-09-30T14:11:26.831Z,5.60
2018-09-30T14:13:55.772Z,4.70
2018-09-30T14:16:24.726Z,4.00
2018-09-30T14:18:54.440Z,7.33
2018-09-30T14:21:23.613Z,2.93
2018-09-30T14:23:52.485Z,5.73
2018-09-30T14:26:21.190Z,8.20
2018-09-30T14:28:49.874Z,5.27
2018-09-30T14:31:18.795Z,4.17
2018-09-30T14:33:48.562Z,7.70
2018-09-30T14:36:18.927Z,4.77
2018-09-30T14:38:47.893Z,7.27
2018-09-30T14:41:17.053Z,3.47
2018-09-30T14:43:45.886Z,7.20
2018-09-30T14:46:15.208Z,4.07
2018-09-30T14:48:44.425Z,10.00
2018-09-30T14:51:13.535Z,5.53
2018-09-30T14:53:42.694Z,6.20
2018-09-30T14:56:11.665Z,9.67
2018-09-30T14:58:40.879Z,9.83
2018-09-30T15:01:10.210Z,5.20
2018-09-30T15:03:41.647Z,4.73
2018-09-30T15:06:10.801Z,3.77
2018-09-30T15:08:39.378Z,5.30
2018-09-30T15:11:08.203Z,5.77
2018-09-30T15:13:42.718Z,6.63
2018-09-30T15:16:13.346Z,6.03
2018-09-30T15:18:42.642Z,4.20
2018-09-30T15:21:27.361Z,5.00
2018-09-30T15:23:57.257Z,7.67
2018-09-30T15:26:27.598Z,7.93
2018-09-30T15:28:57.324Z,7.77
2018-09-30T15:31:26.984Z,5.27
2018-09-30T15:34:00.988Z,8.13
2018-09-30T15:36:30.658Z,5.57
2018-09-30T15:38:59.866Z,5.07
2018-09-30T15:41:30.001Z,5.20
2018-09-30T15:44:01.052Z,5.57
2018-09-30T15:46:31.105Z,7.90
2018-09-30T15:49:04.169Z,8.10
2018-09-30T15:51:33.246Z,6.33
2018-09-30T15:54:02.455Z,6.67
2018-09-30T15:56:31.880Z,3.90
2018-09-30T15:59:01.050Z,6.33
2018-09-30T16:01:30.093Z,9.47
2018-09-30T16:03:59.560Z,10.10
2018-09-30T16:06:28.770Z,7.13
2018-09-30T16:08:58.283Z,4.80
2018-09-30T16:11:27.407Z,5.37
2018-09-30T16:13:58.551Z,6.27
2018-09-30T16:16:27.684Z,6.77
2018-09-30T16:18:56.507Z,6.33
2018-09-30T16:21:25.791Z,12.43
2018-09-30T16:23:55.232Z,6.17
2018-09-30T16:26:24.118Z,5.27
2018-09-30T16:28:53.047Z,5.33
2018-09-30T16:31:21.830Z,5.80
2018-09-30T16:33:51.816Z,6.60
2018-09-30T16:36:21.063Z,5.17
2018-09-30T16:38:50.079Z,4.73
2018-09-30T16:41:19.082Z,7.03
2018-09-30T16:43:48.084Z,5.67
2018-09-30T16:46:16.996Z,5.47
2018-09-30T16:48:46.393Z,10.23
2018-09-30T16:51:21.412Z,6.43
2018-09-30T16:53:50.693Z,5.70
2018-09-30T16:56:19.883Z,7.77
2018-09-30T16:58:49.540Z,8.40
2018-09-30T17:01:18.732Z,7.10
2018-09-30T17:03:47.699Z,10.63
2018-09-30T17:06:17.276Z,5.83
2018-09-30T17:08:47.631Z,5.97
2018-09-30T17:11:16.962Z,6.20
2018-09-30T17:13:46.121Z,5.73
2018-09-30T17:16:15.449Z,7.40
2018-09-30T17:18:44.749Z,6.90
2018-09-30T17:21:13.720Z,4.83
2018-09-30T17:23:43.222Z,5.90
2018-09-30T17:26:12.564Z,6.40
2018-09-30T17:28:42.601Z,4.00
2018-09-30T17:31:12.117Z,5.97
2018-09-30T17:33:41.320Z,5.23
2018-09-30T17:36:10.767Z,7.50
2018-09-30T17:38:40.388Z,8.17
2018-09-30T17:41:09.537Z,3.70
2018-09-30T17:43:41.546Z,4.23
2018-09-30T17:46:10.641Z,5.67
2018-09-30T17:48:39.973Z,3.50
2018-09-30T17:51:09.704Z,4.67
2018-09-30T17:53:38.766Z,7.70
2018-09-30T17:56:08.057Z,4.77
2018-09-30T17:58:37.402Z,4.47
2018-09-30T18:01:06.644Z,9.07
2018-09-30T18:04:06.487Z,6.37
2018-09-30T18:06:36.102Z,4.83
2018-09-30T18:09:07.932Z,5.67
2018-09-30T18:11:37.256Z,4.27
2018-09-30T18:14:07.284Z,4.93
2018-09-30T18:16:36.605Z,4.30
2018-09-30T18:19:05.895Z,4.50
2018-09-30T18:21:35.423Z,3.90
2018-09-30T18:24:08.887Z,8.23
2018-09-30T18:26:40.555Z,4.90
2018-09-30T18:29:09.895Z,5.07
2018-09-30T18:31:40.439Z,5.43
2018-09-30T18:34:09.522Z,6.93
2018-09-30T18:36:39.349Z,7.27
2018-09-30T18:39:10.481Z,4.53
2018-09-30T18:41:39.734Z,5.03
2018-09-30T18:44:10.197Z,7.03
2018-09-30T18:46:39.237Z,6.93
2018-09-30T18:49:08.245Z,8.97
2018-09-30T18:51:37.636Z,8.90
2018-09-30T18:54:07.124Z,7.37
2018-09-30T18:59:08.136Z,9.03
2018-09-30T19:01:36.673Z,6.40
2018-09-30T19:04:06.457Z,10.43
2018-09-30T19:06:35.989Z,9.37
2018-09-30T19:09:16.188Z,9.37
2018-09-30T19:11:45.511Z,6.83
2018-09-30T19:14:14.479Z,11.80
2018-09-30T19:16:44.229Z,7.83
2018-09-30T19:19:13.413Z,7.00
2018-09-30T19:21:42.240Z,8.60
2018-09-30T19:24:11.593Z,7.43
2018-09-30T19:26:43.699Z,6.20
2018-09-30T19:29:13.176Z,8.63
2018-09-30T19:31:42.462Z,6.40
2018-09-30T19:34:12.014Z,6.10
2018-09-30T19:36:42.820Z,9.97
2018-09-30T19:39:12.340Z,10.70
2018-09-30T19:41:41.202Z,8.70
2018-09-30T19:44:11.205Z,10.73
2018-09-30T19:46:39.909Z,7.60
2018-09-30T19:49:08.418Z,7.60
2018-09-30T19:51:37.351Z,9.37
2018-09-30T19:54:06.632Z,9.73
2018-09-30T19:56:35.388Z,8.20
2018-09-30T19:59:04.022Z,10.80
2018-09-30T20:01:32.815Z,7.23
2018-09-30T20:04:02.237Z,4.87
2018-09-30T20:06:31.733Z,5.87
2018-09-30T20:09:00.261Z,6.50
2018-09-30T20:11:29.398Z,12.33
2018-09-30T20:13:58.345Z,5.93
2018-09-30T20:16:27.700Z,6.80
2018-09-30T20:18:56.582Z,6.43
2018-09-30T20:21:25.965Z,8.13
2018-09-30T20:23:55.235Z,7.23
2018-09-30T20:26:24.363Z,6.57
2018-09-30T20:29:08.083Z,6.63
2018-09-30T20:31:50.126Z,6.60
2018-09-30T20:34:27.877Z,6.17
2018-09-30T20:37:09.672Z,10.70
2018-09-30T20:39:42.535Z,5.37
2018-09-30T20:42:14.495Z,10.70
2018-09-30T20:44:54.364Z,5.90
2018-09-30T20:47:28.528Z,4.60
2018-09-30T20:50:06.804Z,5.37
2018-09-30T20:52:53.899Z,6.40
2018-09-30T20:55:26.164Z,5.23
2018-09-30T20:57:56.491Z,12.77
2018-09-30T21:00:27.542Z,8.50
2018-09-30T21:02:58.671Z,8.60
2018-09-30T21:06:15.441Z,9.77
2018-09-30T21:08:45.193Z,4.70
2018-09-30T21:11:14.161Z,10.43
2018-09-30T21:13:43.908Z,3.87
2018-09-30T21:16:13.157Z,6.87
2018-09-30T21:18:42.450Z,7.50
2018-09-30T21:21:27.664Z,8.20
2018-09-30T21:24:07.488Z,5.30
2018-09-30T21:26:39.489Z,8.90
2018-09-30T21:29:20.035Z,5.83
2018-09-30T21:31:52.139Z,5.70
2018-09-30T21:34:38.234Z,11.73
2018-09-30T21:37:13.086Z,4.97
2018-09-30T21:39:44.757Z,6.53
2018-09-30T21:42:16.689Z,6.67
2018-09-30T21:44:49.680Z,5.07
2018-09-30T21:47:24.068Z,7.67
2018-09-30T21:49:56.833Z,5.27
2018-09-30T21:52:28.271Z,7.90
2018-09-30T21:55:00.202Z,8.70
2018-09-30T21:57:31.153Z,4.50
2018-09-30T22:00:02.972Z,7.23
2018-09-30T22:02:34.632Z,3.70
2018-09-30T22:05:07.378Z,4.10
2018-09-30T22:07:42.288Z,5.37
2018-09-30T22:10:12.862Z,7.87
2018-09-30T22:12:43.396Z,8.10
2018-09-30T22:15:14.359Z,5.30
2018-09-30T22:17:45.839Z,10.07
2018-09-30T22:20:15.777Z,7.83
2018-09-30T22:22:47.654Z,12.17
2018-09-30T22:25:19.523Z,4.07
2018-09-30T22:27:54.349Z,8.20
2018-09-30T22:30:23.944Z,6.87
2018-09-30T22:32:52.968Z,7.13
2018-09-30T22:35:21.790Z,6.37
2018-09-30T22:37:50.761Z,5.97
2018-09-30T22:40:20.119Z,3.43
2018-09-30T22:42:52.972Z,4.87
2018-09-30T22:45:21.713Z,5.50
2018-09-30T22:47:51.116Z,5.80
2018-09-30T22:50:19.822Z,6.07
2018-09-30T22:52:49.788Z,9.10
2018-09-30T22:55:19.479Z,11.73
2018-09-30T22:57:48.788Z,8.53
2018-09-30T23:00:17.889Z,9.63
2018-09-30T23:02:46.621Z,8.27
2018-09-30T23:05:17.471Z,6.63
2018-09-30T23:07:46.190Z,4.80
2018-09-30T23:10:15.381Z,8.03
2018-09-30T23:12:43.999Z,9.97
2018-09-30T23:15:12.847Z,7.63
2018-09-30T23:17:42.582Z,13.17
2018-09-30T23:20:18.827Z,8.37
2018-09-30T23:22:47.840Z,8.30
2018-09-30T23:25:20.624Z,10.80
2018-09-30T23:27:49.552Z,10.33
2018-09-30T23:30:18.825Z,5.73
2018-09-30T23:32:48.664Z,8.33
2018-09-30T23:35:18.236Z,4.97
2018-09-30T23:37:47.013Z,4.47
2018-09-30T23:40:15.711Z,9.87
2018-09-30T23:42:44.634Z,7.17
2018-09-30T23:45:13.604Z,4.43
2018-09-30T23:47:42.310Z,8.03
2018-09-30T23:50:11.783Z,7.07
2018-09-30T23:52:40.627Z,6.33
2018-09-30T23:55:09.614Z,9.77
2018-09-30T23:57:38.952Z,7.23
